CheckWX is a tool to help pilots better visualize weather data.  It is not intended as a substitute for an official pre-flight weather briefing.

05:38:24 UTC

KBOS METAR
General Edward Lawrence Logan International Airport
Boston, Massachusetts, USA
Current

44 mins ago

KBOS 270454Z 22008KT 10SM FEW003 17/15 A3019 RMK AO2 SLP223 T01670150 402110100
Observed
May-27 @ 04:54 UTC
Wind
  • 220° at 8 KTS
Visibility
Flight Rules
VFR
Cloud Levels
  • Few at 300' AGL
Dewpoint
15°C / 59°F
Humidity
88%
Altimeter
30.19" Hg
Pressure
1022.32 hPa
Previous

2 hours ago

KBOS 270354Z 18006KT 10SM FEW005 17/15 A3019 RMK AO2 SLP223 T01670150
Observed
May-27 @ 03:54 UTC
Wind
  • 180° at 6 KTS
Visibility
Flight Rules
VFR
Cloud Levels
  • Few at 500' AGL
Temperature
17°C / 63°F
Dewpoint
15°C / 59°F
Humidity
88%
Altimeter
30.19" Hg
Pressure
1022.32 hPa
Previous

3 hours ago

KBOS 270254Z 19006KT 10SM CLR 18/15 A3018 RMK AO2 SLP220 T01780150 51012
Observed
May-27 @ 02:54 UTC
Wind
  • 190° at 6 KTS
Visibility
Flight Rules
VFR
Cloud Levels
  • Clear skies
Temperature
18°C / 64°F
Dewpoint
15°C / 59°F
Humidity
83%
Altimeter
30.18" Hg
Pressure
1022.02 hPa